Observations for YEOVILTON NAVY, United Kingdom (EGDY)

EGDY 260450Z AUTO 29002KT 2400 OVC002/// 16/15 Q1018
EGDY 260350Z AUTO 33005KT 2100 BR OVC002/// 16/16 Q1018 
EGDY 260250Z AUTO 32003KT 3400 BR OVC004/// 17/16 Q1018 
EGDY 260150Z AUTO 01004KT 5000 BR OVC003/// 17/16 Q1019 
EGDY 260050Z AUTO 30004KT 4100 BR OVC003/// 17/16 Q1019 
EGDY 252350Z AUTO 35003KT 7000 BR BKN004/// 16/16 Q1019 
EGDY 252250Z AUTO 00000KT 8000 HZ NCD 15/13 Q1019   
EGDY 252150Z AUTO 33002KT 9999 NCD 16/14 Q1019  
EGDY 252050Z AUTO 32003KT 9999 NCD 17/15 Q1019  
EGDY 251950Z AUTO 33004KT 9999 NCD 18/15 Q1019  
EGDY 251850Z AUTO 32007KT 9999 NCD 19/16 Q1018  
EGDY 251750Z AUTO 35008KT 9999 NCD 22/16 Q1017  
EGDY 251650Z AUTO 31007KT 9999 NCD 25/17 Q1017  
EGDY 251550Z AUTO 31008KT 9999 NCD 26/17 Q1017  
EGDY 251450Z AUTO 32005KT 9999 NCD 26/17 Q1017  
EGDY 251350Z AUTO 33007KT 9999 NCD 26/18 Q1017  
EGDY 251250Z AUTO 34007KT 9999 NCD 26/17 Q1017  
EGDY 251150Z AUTO 29004KT 9999 NCD 25/16 Q1017  
EGDY 251050Z AUTO 02003KT 9999 NCD 24/17 Q1017  
EGDY 250950Z AUTO 25002KT 9999 NCD 23/15 Q1017  
EGDY 250850Z AUTO 02002KT 9999 FEW160/// 22/14 Q1017
EGDY 250750Z AUTO 00000KT 9999 BKN140/// 18/14 Q1017
EGDY 250650Z AUTO 17002KT 9999 BKN120/// 16/13 Q1016
EGDY 250550Z AUTO 26004KT 9999 OVC120/// 15/13 Q1016
EGDY 250450Z AUTO 28004KT 9999 FEW100/// BKN130/// 15/12 Q1015